sensor_id;sensor_type;location;lat;lon;timestamp;P1;durP1;ratioP1;P2;durP2;ratioP2
66603;SDS011;53460;39.612;8.822;2023-09-30T00:01:21;2.17;;;1.48;;
66603;SDS011;53460;39.612;8.822;2023-09-30T00:03:47;3.65;;;2.20;;
66603;SDS011;53460;39.612;8.822;2023-09-30T00:06:12;3.58;;;1.60;;
66603;SDS011;53460;39.612;8.822;2023-09-30T00:08:38;2.75;;;1.70;;
66603;SDS011;53460;39.612;8.822;2023-09-30T00:11:07;3.05;;;1.60;;
66603;SDS011;53460;39.612;8.822;2023-09-30T00:13:33;2.65;;;1.58;;
66603;SDS011;53460;39.612;8.822;2023-09-30T00:15:58;3.33;;;1.45;;
66603;SDS011;53460;39.612;8.822;2023-09-30T00:18:24;2.95;;;1.60;;
66603;SDS011;53460;39.612;8.822;2023-09-30T00:20:50;4.05;;;1.80;;
66603;SDS011;53460;39.612;8.822;2023-09-30T00:23:15;4.05;;;1.83;;
66603;SDS011;53460;39.612;8.822;2023-09-30T00:25:40;3.63;;;1.60;;
66603;SDS011;53460;39.612;8.822;2023-09-30T00:28:07;3.53;;;1.80;;
66603;SDS011;53460;39.612;8.822;2023-09-30T00:30:32;5.35;;;1.80;;
66603;SDS011;53460;39.612;8.822;2023-09-30T00:32:58;5.13;;;1.73;;
66603;SDS011;53460;39.612;8.822;2023-09-30T00:35:24;3.10;;;1.70;;
66603;SDS011;53460;39.612;8.822;2023-09-30T00:37:50;5.70;;;1.98;;
66603;SDS011;53460;39.612;8.822;2023-09-30T00:40:15;3.40;;;1.75;;
66603;SDS011;53460;39.612;8.822;2023-09-30T00:42:41;2.80;;;1.75;;
66603;SDS011;53460;39.612;8.822;2023-09-30T00:45:07;2.40;;;1.90;;
66603;SDS011;53460;39.612;8.822;2023-09-30T00:47:35;2.35;;;1.75;;
66603;SDS011;53460;39.612;8.822;2023-09-30T00:50:01;3.22;;;1.95;;
66603;SDS011;53460;39.612;8.822;2023-09-30T00:52:29;3.83;;;2.10;;
66603;SDS011;53460;39.612;8.822;2023-09-30T00:54:55;4.78;;;2.33;;
66603;SDS011;53460;39.612;8.822;2023-09-30T00:57:20;2.58;;;1.80;;
66603;SDS011;53460;39.612;8.822;2023-09-30T00:59:46;3.72;;;2.03;;
66603;SDS011;53460;39.612;8.822;2023-09-30T01:02:12;4.80;;;2.22;;
66603;SDS011;53460;39.612;8.822;2023-09-30T01:04:37;2.55;;;1.90;;
66603;SDS011;53460;39.612;8.822;2023-09-30T01:07:03;2.55;;;2.10;;
66603;SDS011;53460;39.612;8.822;2023-09-30T01:09:30;4.60;;;2.30;;
66603;SDS011;53460;39.612;8.822;2023-09-30T01:11:56;4.03;;;2.28;;
66603;SDS011;53460;39.612;8.822;2023-09-30T01:16:50;4.18;;;1.92;;
66603;SDS011;53460;39.612;8.822;2023-09-30T01:19:16;3.22;;;1.90;;
66603;SDS011;53460;39.612;8.822;2023-09-30T01:21:41;2.70;;;2.17;;
66603;SDS011;53460;39.612;8.822;2023-09-30T01:24:07;4.97;;;2.63;;
66603;SDS011;53460;39.612;8.822;2023-09-30T01:26:32;2.95;;;2.50;;
66603;SDS011;53460;39.612;8.822;2023-09-30T01:28:58;3.42;;;2.28;;
66603;SDS011;53460;39.612;8.822;2023-09-30T01:31:24;4.70;;;2.38;;
66603;SDS011;53460;39.612;8.822;2023-09-30T01:33:49;6.68;;;2.75;;
66603;SDS011;53460;39.612;8.822;2023-09-30T01:36:14;3.65;;;2.45;;
66603;SDS011;53460;39.612;8.822;2023-09-30T01:38:42;4.05;;;2.88;;
66603;SDS011;53460;39.612;8.822;2023-09-30T01:41:07;4.00;;;2.65;;
66603;SDS011;53460;39.612;8.822;2023-09-30T01:43:34;4.18;;;2.78;;
66603;SDS011;53460;39.612;8.822;2023-09-30T01:46:01;5.72;;;3.17;;
66603;SDS011;53460;39.612;8.822;2023-09-30T01:48:27;6.63;;;2.67;;
66603;SDS011;53460;39.612;8.822;2023-09-30T01:50:52;6.15;;;2.45;;
66603;SDS011;53460;39.612;8.822;2023-09-30T01:53:18;4.30;;;3.03;;
66603;SDS011;53460;39.612;8.822;2023-09-30T01:55:43;4.43;;;2.33;;
66603;SDS011;53460;39.612;8.822;2023-09-30T01:58:09;6.10;;;4.32;;
66603;SDS011;53460;39.612;8.822;2023-09-30T02:00:37;3.72;;;2.70;;
66603;SDS011;53460;39.612;8.822;2023-09-30T02:03:03;3.22;;;2.80;;
66603;SDS011;53460;39.612;8.822;2023-09-30T02:05:28;6.43;;;2.70;;
66603;SDS011;53460;39.612;8.822;2023-09-30T02:07:55;3.72;;;2.80;;
66603;SDS011;53460;39.612;8.822;2023-09-30T02:10:21;5.03;;;2.72;;
66603;SDS011;53460;39.612;8.822;2023-09-30T02:12:47;4.32;;;2.50;;
66603;SDS011;53460;39.612;8.822;2023-09-30T02:15:12;5.47;;;2.90;;
66603;SDS011;53460;39.612;8.822;2023-09-30T02:17:38;4.80;;;2.60;;
66603;SDS011;53460;39.612;8.822;2023-09-30T02:20:03;5.30;;;3.08;;
66603;SDS011;53460;39.612;8.822;2023-09-30T02:22:38;4.03;;;2.63;;
66603;SDS011;53460;39.612;8.822;2023-09-30T02:25:03;4.28;;;2.70;;
66603;SDS011;53460;39.612;8.822;2023-09-30T02:27:32;3.30;;;2.70;;
66603;SDS011;53460;39.612;8.822;2023-09-30T02:29:57;3.97;;;2.55;;
66603;SDS011;53460;39.612;8.822;2023-09-30T02:32:23;6.57;;;4.15;;
66603;SDS011;53460;39.612;8.822;2023-09-30T02:34:49;3.97;;;3.38;;
66603;SDS011;53460;39.612;8.822;2023-09-30T02:37:15;3.15;;;2.85;;
66603;SDS011;53460;39.612;8.822;2023-09-30T02:39:41;5.20;;;3.35;;
66603;SDS011;53460;39.612;8.822;2023-09-30T02:42:06;3.13;;;2.75;;
66603;SDS011;53460;39.612;8.822;2023-09-30T02:44:32;4.43;;;2.90;;
66603;SDS011;53460;39.612;8.822;2023-09-30T02:46:57;2.92;;;2.67;;
66603;SDS011;53460;39.612;8.822;2023-09-30T02:49:23;4.68;;;2.90;;
66603;SDS011;53460;39.612;8.822;2023-09-30T02:51:48;3.53;;;2.97;;
66603;SDS011;53460;39.612;8.822;2023-09-30T02:54:14;3.42;;;2.50;;
66603;SDS011;53460;39.612;8.822;2023-09-30T02:56:41;3.63;;;2.88;;
66603;SDS011;53460;39.612;8.822;2023-09-30T02:59:07;5.15;;;3.03;;
66603;SDS011;53460;39.612;8.822;2023-09-30T03:01:33;3.22;;;2.80;;
66603;SDS011;53460;39.612;8.822;2023-09-30T03:03:59;3.42;;;2.75;;
66603;SDS011;53460;39.612;8.822;2023-09-30T03:06:24;3.28;;;2.85;;
66603;SDS011;53460;39.612;8.822;2023-09-30T03:08:49;3.38;;;3.08;;
66603;SDS011;53460;39.612;8.822;2023-09-30T03:11:17;4.35;;;2.80;;
66603;SDS011;53460;39.612;8.822;2023-09-30T03:13:45;3.08;;;2.38;;
66603;SDS011;53460;39.612;8.822;2023-09-30T03:16:10;5.22;;;3.00;;
66603;SDS011;53460;39.612;8.822;2023-09-30T03:18:36;3.88;;;2.80;;
66603;SDS011;53460;39.612;8.822;2023-09-30T03:21:02;5.28;;;2.80;;
66603;SDS011;53460;39.612;8.822;2023-09-30T03:23:33;3.15;;;2.88;;
66603;SDS011;53460;39.612;8.822;2023-09-30T03:25:59;2.67;;;2.47;;
66603;SDS011;53460;39.612;8.822;2023-09-30T03:28:28;3.05;;;2.70;;
66603;SDS011;53460;39.612;8.822;2023-09-30T03:30:54;4.22;;;2.70;;
66603;SDS011;53460;39.612;8.822;2023-09-30T03:33:19;7.63;;;2.72;;
66603;SDS011;53460;39.612;8.822;2023-09-30T03:35:45;3.05;;;2.83;;
66603;SDS011;53460;39.612;8.822;2023-09-30T03:38:11;3.75;;;3.00;;
66603;SDS011;53460;39.612;8.822;2023-09-30T03:40:38;3.28;;;2.92;;
66603;SDS011;53460;39.612;8.822;2023-09-30T03:43:04;4.50;;;2.67;;
66603;SDS011;53460;39.612;8.822;2023-09-30T03:45:31;4.25;;;2.47;;
66603;SDS011;53460;39.612;8.822;2023-09-30T03:47:58;3.25;;;2.80;;
66603;SDS011;53460;39.612;8.822;2023-09-30T03:50:23;2.78;;;2.50;;
66603;SDS011;53460;39.612;8.822;2023-09-30T03:52:49;3.55;;;2.75;;
66603;SDS011;53460;39.612;8.822;2023-09-30T03:55:16;4.05;;;3.17;;
66603;SDS011;53460;39.612;8.822;2023-09-30T03:57:42;3.58;;;2.67;;
66603;SDS011;53460;39.612;8.822;2023-09-30T04:00:08;3.55;;;3.05;;
66603;SDS011;53460;39.612;8.822;2023-09-30T04:02:38;2.80;;;2.40;;
66603;SDS011;53460;39.612;8.822;2023-09-30T04:05:04;3.17;;;2.78;;
66603;SDS011;53460;39.612;8.822;2023-09-30T04:07:30;4.03;;;2.60;;
66603;SDS011;53460;39.612;8.822;2023-09-30T04:09:56;3.47;;;2.40;;
66603;SDS011;53460;39.612;8.822;2023-09-30T04:12:21;3.38;;;2.88;;
66603;SDS011;53460;39.612;8.822;2023-09-30T04:14:49;2.42;;;2.22;;
66603;SDS011;53460;39.612;8.822;2023-09-30T04:17:14;2.67;;;2.42;;
66603;SDS011;53460;39.612;8.822;2023-09-30T04:19:40;4.32;;;2.53;;
66603;SDS011;53460;39.612;8.822;2023-09-30T04:22:05;4.15;;;2.63;;
66603;SDS011;53460;39.612;8.822;2023-09-30T04:24:30;2.88;;;2.67;;
66603;SDS011;53460;39.612;8.822;2023-09-30T04:26:56;2.60;;;2.33;;
66603;SDS011;53460;39.612;8.822;2023-09-30T04:29:27;2.58;;;2.38;;
66603;SDS011;53460;39.612;8.822;2023-09-30T04:31:54;5.03;;;2.50;;
66603;SDS011;53460;39.612;8.822;2023-09-30T04:34:20;3.30;;;2.70;;
66603;SDS011;53460;39.612;8.822;2023-09-30T04:36:46;3.53;;;2.75;;
66603;SDS011;53460;39.612;8.822;2023-09-30T04:39:12;4.28;;;2.35;;
66603;SDS011;53460;39.612;8.822;2023-09-30T04:41:39;5.07;;;2.70;;
66603;SDS011;53460;39.612;8.822;2023-09-30T04:44:07;2.80;;;2.60;;
66603;SDS011;53460;39.612;8.822;2023-09-30T04:46:35;3.75;;;2.55;;
66603;SDS011;53460;39.612;8.822;2023-09-30T04:49:00;2.83;;;2.38;;
66603;SDS011;53460;39.612;8.822;2023-09-30T04:51:27;3.13;;;2.20;;
66603;SDS011;53460;39.612;8.822;2023-09-30T04:53:53;2.72;;;2.20;;
66603;SDS011;53460;39.612;8.822;2023-09-30T04:56:20;2.92;;;2.58;;
66603;SDS011;53460;39.612;8.822;2023-09-30T04:58:45;2.58;;;2.38;;
66603;SDS011;53460;39.612;8.822;2023-09-30T05:01:12;4.72;;;2.58;;
66603;SDS011;53460;39.612;8.822;2023-09-30T05:03:37;3.47;;;2.33;;
66603;SDS011;53460;39.612;8.822;2023-09-30T05:06:03;2.70;;;2.10;;
66603;SDS011;53460;39.612;8.822;2023-09-30T05:08:29;3.90;;;2.47;;
66603;SDS011;53460;39.612;8.822;2023-09-30T05:10:55;5.57;;;2.50;;
66603;SDS011;53460;39.612;8.822;2023-09-30T05:13:21;3.72;;;2.90;;
66603;SDS011;53460;39.612;8.822;2023-09-30T05:15:48;2.90;;;2.45;;
66603;SDS011;53460;39.612;8.822;2023-09-30T05:18:14;2.50;;;2.30;;
66603;SDS011;53460;39.612;8.822;2023-09-30T05:20:39;2.90;;;2.50;;
66603;SDS011;53460;39.612;8.822;2023-09-30T05:23:06;3.97;;;2.63;;
66603;SDS011;53460;39.612;8.822;2023-09-30T05:25:32;5.32;;;2.53;;
66603;SDS011;53460;39.612;8.822;2023-09-30T05:27:57;2.97;;;2.60;;
66603;SDS011;53460;39.612;8.822;2023-09-30T05:30:23;6.93;;;2.78;;
66603;SDS011;53460;39.612;8.822;2023-09-30T05:32:48;4.63;;;3.22;;
66603;SDS011;53460;39.612;8.822;2023-09-30T05:35:17;7.05;;;2.85;;
66603;SDS011;53460;39.612;8.822;2023-09-30T05:37:43;4.60;;;2.67;;
66603;SDS011;53460;39.612;8.822;2023-09-30T05:40:10;7.95;;;2.97;;
66603;SDS011;53460;39.612;8.822;2023-09-30T05:42:47;6.35;;;2.63;;
66603;SDS011;53460;39.612;8.822;2023-09-30T05:45:13;10.40;;;2.95;;
66603;SDS011;53460;39.612;8.822;2023-09-30T05:47:39;14.27;;;3.55;;
66603;SDS011;53460;39.612;8.822;2023-09-30T05:50:06;11.95;;;3.38;;
66603;SDS011;53460;39.612;8.822;2023-09-30T05:52:33;6.07;;;3.30;;
66603;SDS011;53460;39.612;8.822;2023-09-30T05:54:58;4.03;;;3.17;;
66603;SDS011;53460;39.612;8.822;2023-09-30T05:57:26;11.30;;;3.17;;
66603;SDS011;53460;39.612;8.822;2023-09-30T05:59:51;5.10;;;3.20;;
66603;SDS011;53460;39.612;8.822;2023-09-30T06:02:17;11.07;;;3.22;;
66603;SDS011;53460;39.612;8.822;2023-09-30T06:04:42;5.15;;;2.72;;
66603;SDS011;53460;39.612;8.822;2023-09-30T06:07:08;3.75;;;3.10;;
66603;SDS011;53460;39.612;8.822;2023-09-30T06:09:33;10.35;;;2.90;;
66603;SDS011;53460;39.612;8.822;2023-09-30T06:11:59;9.30;;;2.90;;
66603;SDS011;53460;39.612;8.822;2023-09-30T06:14:28;4.22;;;2.92;;
66603;SDS011;53460;39.612;8.822;2023-09-30T06:16:56;4.85;;;3.03;;
66603;SDS011;53460;39.612;8.822;2023-09-30T06:19:21;5.55;;;2.80;;
66603;SDS011;53460;39.612;8.822;2023-09-30T06:21:46;5.32;;;3.22;;
66603;SDS011;53460;39.612;8.822;2023-09-30T06:24:12;4.63;;;2.92;;
66603;SDS011;53460;39.612;8.822;2023-09-30T06:26:37;5.40;;;3.30;;
66603;SDS011;53460;39.612;8.822;2023-09-30T06:29:03;9.18;;;3.63;;
66603;SDS011;53460;39.612;8.822;2023-09-30T06:31:29;7.60;;;3.10;;
66603;SDS011;53460;39.612;8.822;2023-09-30T06:33:54;5.20;;;3.13;;
66603;SDS011;53460;39.612;8.822;2023-09-30T06:36:23;7.38;;;3.15;;
66603;SDS011;53460;39.612;8.822;2023-09-30T06:38:49;4.18;;;2.53;;
66603;SDS011;53460;39.612;8.822;2023-09-30T06:41:16;3.58;;;2.60;;
66603;SDS011;53460;39.612;8.822;2023-09-30T06:43:42;4.38;;;2.75;;
66603;SDS011;53460;39.612;8.822;2023-09-30T06:46:08;3.03;;;1.95;;
66603;SDS011;53460;39.612;8.822;2023-09-30T06:48:38;2.88;;;2.17;;
66603;SDS011;53460;39.612;8.822;2023-09-30T06:51:05;5.22;;;2.53;;
66603;SDS011;53460;39.612;8.822;2023-09-30T06:53:31;4.32;;;2.47;;
66603;SDS011;53460;39.612;8.822;2023-09-30T06:55:56;7.85;;;2.70;;
66603;SDS011;53460;39.612;8.822;2023-09-30T06:58:22;3.75;;;2.55;;
66603;SDS011;53460;39.612;8.822;2023-09-30T07:00:48;3.08;;;2.22;;
66603;SDS011;53460;39.612;8.822;2023-09-30T07:03:15;2.35;;;2.20;;
66603;SDS011;53460;39.612;8.822;2023-09-30T07:05:40;2.78;;;2.40;;
66603;SDS011;53460;39.612;8.822;2023-09-30T07:08:06;4.20;;;2.30;;
66603;SDS011;53460;39.612;8.822;2023-09-30T07:10:31;4.10;;;2.42;;
66603;SDS011;53460;39.612;8.822;2023-09-30T07:12:57;4.40;;;2.38;;
66603;SDS011;53460;39.612;8.822;2023-09-30T07:15:22;5.18;;;2.45;;
66603;SDS011;53460;39.612;8.822;2023-09-30T07:17:48;6.93;;;2.50;;
66603;SDS011;53460;39.612;8.822;2023-09-30T07:20:14;2.95;;;2.25;;
66603;SDS011;53460;39.612;8.822;2023-09-30T07:22:39;5.05;;;2.38;;
66603;SDS011;53460;39.612;8.822;2023-09-30T07:25:05;2.65;;;2.28;;
66603;SDS011;53460;39.612;8.822;2023-09-30T07:27:31;3.83;;;2.17;;
66603;SDS011;53460;39.612;8.822;2023-09-30T07:29:57;8.93;;;2.83;;
66603;SDS011;53460;39.612;8.822;2023-09-30T07:32:22;4.20;;;2.10;;
66603;SDS011;53460;39.612;8.822;2023-09-30T07:34:51;3.88;;;2.10;;
66603;SDS011;53460;39.612;8.822;2023-09-30T07:37:17;2.65;;;1.95;;
66603;SDS011;53460;39.612;8.822;2023-09-30T07:39:44;3.38;;;1.95;;
66603;SDS011;53460;39.612;8.822;2023-09-30T07:42:09;2.10;;;1.75;;
66603;SDS011;53460;39.612;8.822;2023-09-30T07:44:35;2.38;;;1.90;;
66603;SDS011;53460;39.612;8.822;2023-09-30T07:47:05;3.92;;;1.73;;
66603;SDS011;53460;39.612;8.822;2023-09-30T07:49:37;4.57;;;1.98;;
66603;SDS011;53460;39.612;8.822;2023-09-30T07:52:03;6.78;;;2.13;;
66603;SDS011;53460;39.612;8.822;2023-09-30T07:54:29;2.83;;;1.67;;
66603;SDS011;53460;39.612;8.822;2023-09-30T07:56:54;8.02;;;2.10;;
66603;SDS011;53460;39.612;8.822;2023-09-30T07:59:20;2.53;;;1.70;;
66603;SDS011;53460;39.612;8.822;2023-09-30T08:01:47;1.50;;;1.30;;
66603;SDS011;53460;39.612;8.822;2023-09-30T08:04:13;6.25;;;2.00;;
66603;SDS011;53460;39.612;8.822;2023-09-30T08:06:38;4.53;;;1.73;;
66603;SDS011;53460;39.612;8.822;2023-09-30T08:09:05;2.38;;;1.60;;
66603;SDS011;53460;39.612;8.822;2023-09-30T08:11:35;1.52;;;1.42;;
66603;SDS011;53460;39.612;8.822;2023-09-30T08:14:03;4.97;;;1.88;;
66603;SDS011;53460;39.612;8.822;2023-09-30T08:16:32;7.25;;;1.70;;
66603;SDS011;53460;39.612;8.822;2023-09-30T08:18:58;1.77;;;1.50;;
66603;SDS011;53460;39.612;8.822;2023-09-30T08:21:23;3.92;;;1.60;;
66603;SDS011;53460;39.612;8.822;2023-09-30T08:23:48;1.88;;;1.40;;
66603;SDS011;53460;39.612;8.822;2023-09-30T08:26:14;1.45;;;1.20;;
66603;SDS011;53460;39.612;8.822;2023-09-30T08:28:39;2.97;;;1.60;;
66603;SDS011;53460;39.612;8.822;2023-09-30T08:31:05;2.65;;;1.60;;
66603;SDS011;53460;39.612;8.822;2023-09-30T08:33:31;5.35;;;1.90;;
66603;SDS011;53460;39.612;8.822;2023-09-30T08:36:05;5.00;;;1.48;;
66603;SDS011;53460;39.612;8.822;2023-09-30T08:38:39;3.33;;;1.80;;
66603;SDS011;53460;39.612;8.822;2023-09-30T08:41:05;2.33;;;1.35;;
66603;SDS011;53460;39.612;8.822;2023-09-30T08:43:34;2.25;;;1.35;;
66603;SDS011;53460;39.612;8.822;2023-09-30T08:46:02;1.42;;;1.33;;
66603;SDS011;53460;39.612;8.822;2023-09-30T08:48:28;1.70;;;1.52;;
66603;SDS011;53460;39.612;8.822;2023-09-30T08:50:53;1.75;;;1.52;;
66603;SDS011;53460;39.612;8.822;2023-09-30T08:53:22;3.13;;;1.35;;
66603;SDS011;53460;39.612;8.822;2023-09-30T08:55:48;1.73;;;1.17;;
66603;SDS011;53460;39.612;8.822;2023-09-30T08:58:16;3.47;;;1.50;;
66603;SDS011;53460;39.612;8.822;2023-09-30T09:00:42;4.78;;;1.35;;
66603;SDS011;53460;39.612;8.822;2023-09-30T09:03:07;2.45;;;1.40;;
66603;SDS011;53460;39.612;8.822;2023-09-30T09:05:34;5.78;;;1.40;;
66603;SDS011;53460;39.612;8.822;2023-09-30T09:07:59;4.93;;;1.38;;
66603;SDS011;53460;39.612;8.822;2023-09-30T09:10:24;2.13;;;1.50;;
66603;SDS011;53460;39.612;8.822;2023-09-30T09:12:56;1.88;;;1.50;;
66603;SDS011;53460;39.612;8.822;2023-09-30T09:15:26;7.80;;;1.80;;
66603;SDS011;53460;39.612;8.822;2023-09-30T09:17:51;2.38;;;1.50;;
66603;SDS011;53460;39.612;8.822;2023-09-30T09:20:26;1.90;;;1.52;;
66603;SDS011;53460;39.612;8.822;2023-09-30T09:22:52;3.30;;;1.48;;
66603;SDS011;53460;39.612;8.822;2023-09-30T09:25:22;3.67;;;1.30;;
66603;SDS011;53460;39.612;8.822;2023-09-30T09:27:48;2.50;;;1.33;;
66603;SDS011;53460;39.612;8.822;2023-09-30T09:30:18;1.95;;;1.15;;
66603;SDS011;53460;39.612;8.822;2023-09-30T09:33:02;7.60;;;1.88;;
66603;SDS011;53460;39.612;8.822;2023-09-30T09:35:31;3.97;;;1.38;;
66603;SDS011;53460;39.612;8.822;2023-09-30T09:38:01;2.95;;;1.30;;
66603;SDS011;53460;39.612;8.822;2023-09-30T09:40:29;1.80;;;1.40;;
66603;SDS011;53460;39.612;8.822;2023-09-30T09:42:55;3.92;;;1.27;;
66603;SDS011;53460;39.612;8.822;2023-09-30T09:45:24;1.63;;;1.10;;
66603;SDS011;53460;39.612;8.822;2023-09-30T09:47:51;2.83;;;1.30;;
66603;SDS011;53460;39.612;8.822;2023-09-30T09:50:17;2.08;;;1.20;;
66603;SDS011;53460;39.612;8.822;2023-09-30T09:52:44;2.20;;;1.23;;
66603;SDS011;53460;39.612;8.822;2023-09-30T09:55:10;2.25;;;1.38;;
66603;SDS011;53460;39.612;8.822;2023-09-30T09:57:36;1.75;;;1.23;;
66603;SDS011;53460;39.612;8.822;2023-09-30T10:00:01;3.22;;;1.30;;
66603;SDS011;53460;39.612;8.822;2023-09-30T10:02:30;2.80;;;1.17;;
66603;SDS011;53460;39.612;8.822;2023-09-30T10:04:57;1.50;;;1.25;;
66603;SDS011;53460;39.612;8.822;2023-09-30T10:07:26;3.08;;;1.63;;
66603;SDS011;53460;39.612;8.822;2023-09-30T10:09:52;3.08;;;1.52;;
66603;SDS011;53460;39.612;8.822;2023-09-30T10:12:19;2.20;;;1.50;;
66603;SDS011;53460;39.612;8.822;2023-09-30T10:14:46;1.98;;;1.42;;
66603;SDS011;53460;39.612;8.822;2023-09-30T10:17:12;2.78;;;1.60;;
66603;SDS011;53460;39.612;8.822;2023-09-30T10:20:02;3.63;;;1.40;;
66603;SDS011;53460;39.612;8.822;2023-09-30T10:22:22;2.72;;;1.48;;
66603;SDS011;53460;39.612;8.822;2023-09-30T10:24:49;1.45;;;1.30;;
66603;SDS011;53460;39.612;8.822;2023-09-30T10:29:47;2.90;;;1.27;;
66603;SDS011;53460;39.612;8.822;2023-09-30T10:32:12;1.65;;;1.30;;
66603;SDS011;53460;39.612;8.822;2023-09-30T10:34:38;3.10;;;1.52;;
66603;SDS011;53460;39.612;8.822;2023-09-30T10:37:23;3.10;;;1.40;;
66603;SDS011;53460;39.612;8.822;2023-09-30T10:39:53;3.47;;;1.50;;
66603;SDS011;53460;39.612;8.822;2023-09-30T10:45:04;2.55;;;1.27;;
66603;SDS011;53460;39.612;8.822;2023-09-30T10:49:56;1.85;;;1.35;;
66603;SDS011;53460;39.612;8.822;2023-09-30T10:52:22;3.67;;;1.70;;
66603;SDS011;53460;39.612;8.822;2023-09-30T10:54:48;2.63;;;1.40;;
66603;SDS011;53460;39.612;8.822;2023-09-30T10:57:14;2.25;;;1.50;;
66603;SDS011;53460;39.612;8.822;2023-09-30T11:00:04;3.80;;;1.52;;
66603;SDS011;53460;39.612;8.822;2023-09-30T11:02:32;2.85;;;1.48;;
66603;SDS011;53460;39.612;8.822;2023-09-30T11:05:01;2.85;;;1.55;;
66603;SDS011;53460;39.612;8.822;2023-09-30T11:07:33;3.30;;;1.40;;
66603;SDS011;53460;39.612;8.822;2023-09-30T11:10:00;3.20;;;1.50;;
66603;SDS011;53460;39.612;8.822;2023-09-30T11:12:26;2.70;;;1.45;;
66603;SDS011;53460;39.612;8.822;2023-09-30T11:14:58;2.85;;;1.73;;
66603;SDS011;53460;39.612;8.822;2023-09-30T11:17:23;4.47;;;1.95;;
66603;SDS011;53460;39.612;8.822;2023-09-30T11:19:49;5.57;;;1.58;;
66603;SDS011;53460;39.612;8.822;2023-09-30T11:22:15;2.28;;;1.45;;
66603;SDS011;53460;39.612;8.822;2023-09-30T11:24:40;3.03;;;1.73;;
66603;SDS011;53460;39.612;8.822;2023-09-30T11:27:06;2.78;;;1.70;;
66603;SDS011;53460;39.612;8.822;2023-09-30T11:29:31;3.33;;;1.63;;
66603;SDS011;53460;39.612;8.822;2023-09-30T11:31:57;3.67;;;1.70;;
66603;SDS011;53460;39.612;8.822;2023-09-30T11:34:36;1.73;;;1.40;;
66603;SDS011;53460;39.612;8.822;2023-09-30T11:37:06;2.58;;;1.48;;
66603;SDS011;53460;39.612;8.822;2023-09-30T11:39:31;4.00;;;1.80;;
66603;SDS011;53460;39.612;8.822;2023-09-30T11:41:58;4.15;;;1.60;;
66603;SDS011;53460;39.612;8.822;2023-09-30T11:44:24;4.78;;;1.40;;
66603;SDS011;53460;39.612;8.822;2023-09-30T11:46:53;1.55;;;1.40;;
66603;SDS011;53460;39.612;8.822;2023-09-30T11:52:12;2.67;;;1.23;;
66603;SDS011;53460;39.612;8.822;2023-09-30T11:54:42;2.40;;;1.67;;
66603;SDS011;53460;39.612;8.822;2023-09-30T11:57:14;3.25;;;1.40;;
66603;SDS011;53460;39.612;8.822;2023-09-30T11:59:40;3.60;;;1.42;;
66603;SDS011;53460;39.612;8.822;2023-09-30T12:02:06;2.20;;;1.50;;
66603;SDS011;53460;39.612;8.822;2023-09-30T12:04:32;2.20;;;1.48;;
66603;SDS011;53460;39.612;8.822;2023-09-30T12:06:57;5.43;;;1.40;;
66603;SDS011;53460;39.612;8.822;2023-09-30T12:09:23;2.63;;;1.30;;
66603;SDS011;53460;39.612;8.822;2023-09-30T12:11:53;4.50;;;1.65;;
66603;SDS011;53460;39.612;8.822;2023-09-30T12:14:20;2.00;;;1.38;;
66603;SDS011;53460;39.612;8.822;2023-09-30T12:16:48;2.65;;;1.55;;
66603;SDS011;53460;39.612;8.822;2023-09-30T12:19:14;2.00;;;1.35;;
66603;SDS011;53460;39.612;8.822;2023-09-30T12:21:41;1.77;;;1.40;;
66603;SDS011;53460;39.612;8.822;2023-09-30T12:24:06;2.97;;;1.27;;
66603;SDS011;53460;39.612;8.822;2023-09-30T12:26:34;3.97;;;1.67;;
66603;SDS011;53460;39.612;8.822;2023-09-30T12:29:00;2.90;;;1.40;;
66603;SDS011;53460;39.612;8.822;2023-09-30T12:31:25;2.13;;;1.33;;
66603;SDS011;53460;39.612;8.822;2023-09-30T12:33:51;3.88;;;1.52;;
66603;SDS011;53460;39.612;8.822;2023-09-30T12:36:17;3.67;;;1.50;;
66603;SDS011;53460;39.612;8.822;2023-09-30T12:38:43;5.10;;;1.33;;
66603;SDS011;53460;39.612;8.822;2023-09-30T12:41:09;3.03;;;1.48;;
66603;SDS011;53460;39.612;8.822;2023-09-30T12:43:35;3.25;;;1.30;;
66603;SDS011;53460;39.612;8.822;2023-09-30T12:46:00;3.03;;;1.40;;
66603;SDS011;53460;39.612;8.822;2023-09-30T12:48:26;2.33;;;1.63;;
66603;SDS011;53460;39.612;8.822;2023-09-30T12:50:51;1.80;;;1.30;;
66603;SDS011;53460;39.612;8.822;2023-09-30T12:53:17;2.65;;;1.30;;
66603;SDS011;53460;39.612;8.822;2023-09-30T12:55:42;2.53;;;1.52;;
66603;SDS011;53460;39.612;8.822;2023-09-30T12:58:08;2.80;;;1.60;;
66603;SDS011;53460;39.612;8.822;2023-09-30T13:00:34;4.47;;;1.48;;
66603;SDS011;53460;39.612;8.822;2023-09-30T13:03:01;1.67;;;1.35;;
66603;SDS011;53460;39.612;8.822;2023-09-30T13:05:26;5.53;;;1.33;;
66603;SDS011;53460;39.612;8.822;2023-09-30T13:07:53;7.05;;;1.75;;
66603;SDS011;53460;39.612;8.822;2023-09-30T13:10:18;4.88;;;1.52;;
66603;SDS011;53460;39.612;8.822;2023-09-30T13:12:44;4.55;;;1.55;;
66603;SDS011;53460;39.612;8.822;2023-09-30T13:15:10;4.75;;;1.52;;
66603;SDS011;53460;39.612;8.822;2023-09-30T13:17:35;2.22;;;1.38;;
66603;SDS011;53460;39.612;8.822;2023-09-30T13:20:00;2.40;;;1.40;;
66603;SDS011;53460;39.612;8.822;2023-09-30T13:22:30;2.42;;;1.58;;
66603;SDS011;53460;39.612;8.822;2023-09-30T13:24:55;2.65;;;1.30;;
66603;SDS011;53460;39.612;8.822;2023-09-30T13:27:21;4.15;;;1.45;;
66603;SDS011;53460;39.612;8.822;2023-09-30T13:29:47;1.58;;;1.42;;
66603;SDS011;53460;39.612;8.822;2023-09-30T13:32:12;1.63;;;1.50;;
66603;SDS011;53460;39.612;8.822;2023-09-30T13:34:39;4.72;;;1.77;;
66603;SDS011;53460;39.612;8.822;2023-09-30T13:37:05;3.25;;;1.80;;
66603;SDS011;53460;39.612;8.822;2023-09-30T13:39:30;3.40;;;1.77;;
66603;SDS011;53460;39.612;8.822;2023-09-30T13:41:56;2.58;;;1.40;;
66603;SDS011;53460;39.612;8.822;2023-09-30T13:44:21;3.60;;;1.42;;
66603;SDS011;53460;39.612;8.822;2023-09-30T13:46:48;4.05;;;1.60;;
66603;SDS011;53460;39.612;8.822;2023-09-30T13:49:13;1.70;;;1.50;;
66603;SDS011;53460;39.612;8.822;2023-09-30T13:51:39;2.40;;;1.40;;
66603;SDS011;53460;39.612;8.822;2023-09-30T13:54:05;2.70;;;1.48;;
66603;SDS011;53460;39.612;8.822;2023-09-30T13:56:32;2.10;;;1.55;;
66603;SDS011;53460;39.612;8.822;2023-09-30T13:58:58;3.45;;;1.50;;
66603;SDS011;53460;39.612;8.822;2023-09-30T14:01:24;5.18;;;1.92;;
66603;SDS011;53460;39.612;8.822;2023-09-30T14:03:49;2.63;;;1.50;;
66603;SDS011;53460;39.612;8.822;2023-09-30T14:06:20;2.92;;;1.52;;
66603;SDS011;53460;39.612;8.822;2023-09-30T14:08:45;1.92;;;1.52;;
66603;SDS011;53460;39.612;8.822;2023-09-30T14:11:11;6.75;;;1.80;;
66603;SDS011;53460;39.612;8.822;2023-09-30T14:13:37;2.17;;;1.30;;
66603;SDS011;53460;39.612;8.822;2023-09-30T14:16:04;3.42;;;1.30;;
66603;SDS011;53460;39.612;8.822;2023-09-30T14:18:29;3.95;;;1.40;;
66603;SDS011;53460;39.612;8.822;2023-09-30T14:20:55;1.65;;;1.38;;
66603;SDS011;53460;39.612;8.822;2023-09-30T14:23:21;2.50;;;1.67;;
66603;SDS011;53460;39.612;8.822;2023-09-30T14:25:46;2.22;;;1.27;;
66603;SDS011;53460;39.612;8.822;2023-09-30T14:28:12;3.38;;;1.50;;
66603;SDS011;53460;39.612;8.822;2023-09-30T14:30:39;3.67;;;1.67;;
66603;SDS011;53460;39.612;8.822;2023-09-30T14:33:04;2.67;;;1.80;;
66603;SDS011;53460;39.612;8.822;2023-09-30T14:35:30;4.35;;;1.42;;
66603;SDS011;53460;39.612;8.822;2023-09-30T14:37:57;3.10;;;1.27;;
66603;SDS011;53460;39.612;8.822;2023-09-30T14:40:23;2.83;;;1.60;;
66603;SDS011;53460;39.612;8.822;2023-09-30T14:42:48;1.55;;;1.35;;
66603;SDS011;53460;39.612;8.822;2023-09-30T14:45:14;5.63;;;1.60;;
66603;SDS011;53460;39.612;8.822;2023-09-30T14:47:39;4.07;;;1.40;;
66603;SDS011;53460;39.612;8.822;2023-09-30T14:50:08;4.05;;;1.38;;
66603;SDS011;53460;39.612;8.822;2023-09-30T14:52:33;2.03;;;1.30;;
66603;SDS011;53460;39.612;8.822;2023-09-30T14:54:59;4.85;;;1.60;;
66603;SDS011;53460;39.612;8.822;2023-09-30T14:57:25;3.05;;;1.55;;